Terminal Aerodrome Forecast
Issued by NWS Burlington, VT

Home | Current Version | Previous Version | Text Only | Print | Product List | Glossary On
Versions: 1 2 3 4 5 6 7 8 9 10 11 12 13 14 15 16 17
000
FTUS41 KBTV 191120
TAFBTV
TAF
KBTV 191120Z 1912/2012 35008KT P6SM BKN035
     FM191330 36007KT P6SM SCT035
     FM200100 13003KT P6SM SCT250
     FM200900 16009KT P6SM OVC150=

USA.gov is the U.S. government's official web portal to all federal, state and local government web resources and services.